• Join FlightAware (Why Join?)
  • Login
  • US Flag 
08:49PM EST


 

Airport Tracker/Info


-or-


 

Live Flight TrackerFlight Track Log ✈ SKW4764 ✈ 01-Nov-2013 ✈ KSLC - KMSO

Flight Track Log - Related Links

Times and Time Zones

All times are in EDT time to prevent confusion due to time zone crossing. See the SKW4764 flight status page for this flight to view local times or setup timezone preferences in your user account.

Time Position Orientation Groundspeed Altitude Reporting Facility
EDT Latitude Longitude Course Direction KTS MPH feet Rate Location/Type
05:19PM 40.8128 -111.9772 17° North 178 205 5,000  Level Salt Lake Center
05:19PM 40.8369 -111.9803 355° North 183 211 5,900 2,400 Climbing Salt Lake Center
05:21PM 40.9417 -111.9897 356° North 262 302 9,800 2,400 Climbing Salt Lake Center
05:21PM 40.9769 -111.9694 23° Northeast 277 319 10,800 1,740 Climbing Salt Lake Center
05:22PM 41.1903 -112.1034 13° North  Level Estimated
05:22PM 41.0156 -111.9464 24° Northeast 284 327 11,600  Level Salt Lake Center
05:23PM 41.2637 -112.0070 45° Northeast  Level FlightAware Approximate
05:23PM 41.0986 -111.8983 24° Northeast 313 360 13,800  Level Salt Lake Center
05:24PM 41.3639 -112.0405 17° North  Level Estimated
05:24PM 41.1833 -111.8503 23° Northeast 325 374 15,800  Level Salt Lake Center
05:25PM 41.2667 -111.7958 26° Northeast 332 382 17,600 1,440 Climbing Salt Lake Center
05:26PM 41.3511 -111.7394 27° Northeast 339 390 18,800 1,200 Climbing Salt Lake Center
05:27PM 41.4394 -111.7664 347° North 325 374 20,100 1,200 Climbing Salt Lake Center
05:28PM 41.5281 -111.8003 344° North 331 381 21,400 1,200 Climbing Salt Lake Center
05:29PM 41.6186 -111.8353 344° North 338 389 22,700 1,200 Climbing Salt Lake Center
05:30PM 41.7303 -111.8786 344° North 349 402 23,900 1,020 Climbing Salt Lake Center
05:31PM 41.8233 -111.9139 344° North 348 400 24,900 840 Climbing Salt Lake Center
05:32PM 41.9172 -111.9531 343° North 353 406 25,700 480 Climbing Salt Lake Center
05:33PM 42.0161 -111.9922 344° North 369 425 26,000 120 Climbing Salt Lake Center
05:34PM 42.1169 -112.0297 345° North 376 433 26,000  Level Salt Lake Center
05:35PM 42.2183 -112.0706 343° North 379 436 26,000  Level Salt Lake Center
05:36PM 42.3389 -112.1169 344° North 376 433 26,000  Level Salt Lake Center
05:37PM 42.4378 -112.1578 343° North 372 428 26,000  Level Salt Lake Center
05:38PM 42.5394 -112.1958 345° North 378 435 26,000  Level Salt Lake Center
05:39PM 42.6408 -112.2378 343° North 381 438 26,000  Level Salt Lake Center
05:40PM 42.7450 -112.2786 344° North 372 428 26,000  Level Salt Lake Center
05:41PM 42.8558 -112.3236 343° North 370 426 26,000  Level Salt Lake Center
05:42PM 42.9494 -112.3611 344° North 367 422 26,000  Level Salt Lake Center
05:43PM 43.0433 -112.3992 344° North 367 422 26,000  Level Salt Lake Center
05:44PM 43.1522 -112.4444 343° North 365 420 26,000  Level Salt Lake Center
05:45PM 43.2456 -112.4825 343° North 363 418 26,000  Level Salt Lake Center
05:46PM 43.3531 -112.5253 344° North 360 414 26,000  Level Salt Lake Center
05:48PM 43.4456 -112.5636 343° North 361 415 26,000  Level Salt Lake Center
05:49PM 43.5539 -112.6072 344° North 361 415 26,000  Level Salt Lake Center
05:50PM 43.6458 -112.6469 343° North 361 415 26,000  Level Salt Lake Center
05:51PM 43.7389 -112.6850 344° North 363 418 26,000  Level Salt Lake Center
05:52PM 43.8486 -112.7311 343° North 366 421 26,000  Level Salt Lake Center
05:53PM 43.9419 -112.7700 343° North 366 421 26,000  Level Salt Lake Center
05:54PM 44.0556 -112.8183 343° North 376 433 26,000  Level Salt Lake Center
05:55PM 44.1531 -112.8592 343° North 379 436 26,000  Level Salt Lake Center
05:56PM 44.2658 -112.9078 343° North 380 437 26,000  Level Salt Lake Center
05:57PM 44.3606 -112.9475 343° North 375 432 26,000  Level Salt Lake Center
05:58PM 44.4550 -112.9872 343° North 371 427 26,000  Level Salt Lake Center
05:59PM 44.5647 -113.0344 343° North 370 426 26,000  Level Salt Lake Center
06:00PM 44.6583 -113.0753 343° North 367 422 26,000  Level Salt Lake Center
06:01PM 44.7653 -113.1214 343° North 362 417 26,000  Level Salt Lake Center
06:02PM 44.8583 -113.1606 343° North 363 418 26,000  Level Salt Lake Center
06:03PM 44.9653 -113.2083 342° North 362 417 26,000  Level Salt Lake Center
06:04PM 45.0572 -113.2481 343° North 361 415 26,000  Level Salt Lake Center
06:05PM 45.1508 -113.2889 343° North 365 420 26,000  Level Salt Lake Center
06:06PM 45.2597 -113.3367 343° North 366 421 26,000  Level Salt Lake Center
06:07PM 45.3617 -113.3831 342° North 370 426 26,000  Level Salt Lake Center
06:08PM 45.4639 -113.4275 343° North 374 430 26,000  Level Salt Lake Center
06:09PM 45.5647 -113.4725 343° North 375 432 26,000  Level Salt Lake Center
06:10PM 45.6664 -113.5189 342° North 374 430 26,000 -120 Level Salt Lake Center
06:11PM 45.7769 -113.5672 343° North 379 436 25,800 -1,140 Descending Salt Lake Center
06:12PM 45.8764 -113.6128 342° North 372 428 23,700 -1,920 Descending Salt Lake Center
06:13PM 45.9611 -113.6497 343° North 363 418 21,900 -1,860 Descending Salt Lake Center
06:14PM 46.0506 -113.6908 342° North 341 392 19,900 -2,040 Descending Salt Lake Center
06:15PM 46.1528 -113.7375 342° North 328 377 17,700 -1,980 Descending Salt Lake Center
06:16PM 46.2369 -113.7792 341° North 322 371 15,900 -1,380 Descending Salt Lake Center
06:17PM 46.3242 -113.8183 343° North 305 351 14,900 -540 Descending Salt Lake Center
06:18PM 46.4014 -113.8519 343° North 293 337 14,900 -540 Level Salt Lake Center
06:19PM 46.4747 -113.8847 343° North 278 320 13,900 -1,560 Descending Salt Lake Center
06:20PM 46.5511 -113.9269 339° North 273 314 11,800 -2,040 Descending Salt Lake Center
06:21PM 46.6189 -113.9681 337° Northwest 265 305 9,800 -2,040 Descending Salt Lake Center
06:23PM 46.6856 -114.0158 334° Northwest 267 307 7,700 -1,380 Descending Salt Lake Center
06:24PM 46.7586 -114.0347 350° North 245 282 7,000 -900 Descending Salt Lake Center
06:25PM 46.8156 -114.0158 13° North 216 249 5,900 -1,080 Descending Salt Lake Center
06:26PM 46.8647 -114.0089 North 161 185 4,800 -1,080 Descending Salt Lake Center
06:27PM 46.8919 -114.0508 314° West 144 166 3,700 -780 Descending Salt Lake Center
06:28PM 46.9172 -114.0942 311° West 139 160 3,200 -540 Descending Salt Lake Center